Time;durP1;ratioP1;P1;durP2;ratioP2;P2;SDS_P1;SDS_P2;PMS_P1;PMS_P2;Temp;Humidity;BMP_temperature;BMP_pressure;BME280_temperature;BME280_humidity;BME280_pressure;Samples;Min_cycle;Max_cycle;Signal;HPM_P1;HPM_P2
2021/12/13 00:02:08;;;;;;;73.65;25.15;;;;;;;;;;5029789;28;20049;-79
2021/12/13 00:04:40;;;;;;;70.88;23.60;;;;;;;;;;5016252;28;21719;-78
2021/12/13 00:07:08;;;;;;;69.47;23.95;;;;;;;;;;5013516;28;20060;-79
2021/12/13 00:09:39;;;;;;;71.97;26.73;;;;;;;;;;5031244;28;20044;-79
2021/12/13 00:12:05;;;;;;;84.63;26.85;;;;;;;;;;5045668;28;20056;-79
2021/12/13 00:14:33;;;;;;;69.25;25.83;;;;;;;;;;5011912;28;20071;-79
2021/12/13 00:17:11;;;;;;;82.53;28.65;;;;;;;;;;5013267;28;20072;-79
2021/12/13 00:19:40;;;;;;;75.20;27.83;;;;;;;;;;5044811;28;20064;-79
2021/12/13 00:22:09;;;;;;;91.32;29.17;;;;;;;;;;5045394;28;20037;-79
2021/12/13 00:24:39;;;;;;;78.80;27.35;;;;;;;;;;5061681;28;20037;-79
2021/12/13 00:27:11;;;;;;;90.80;28.60;;;;;;;;;;5067864;28;20477;-79
2021/12/13 00:29:49;;;;;;;83.43;28.67;;;;;;;;;;5011817;28;20041;-79
2021/12/13 00:32:20;;;;;;;83.65;27.65;;;;;;;;;;5070858;28;20558;-79
2021/12/13 00:34:46;;;;;;;;;;;;;;;;;;5024926;28;20040;-79
2021/12/13 00:37:16;;;;;;;83.90;28.92;;;;;;;;;;5045117;28;20490;-79
2021/12/13 00:39:54;;;;;;;86.95;28.52;;;;;;;;;;5066054;28;20444;-79
2021/12/13 00:42:21;;;;;;;87.10;28.08;;;;;;;;;;5027687;28;20591;-79
2021/12/13 00:44:49;;;;;;;98.63;31.30;;;;;;;;;;5043238;28;20559;-78
2021/12/13 00:47:18;;;;;;;92.70;29.95;;;;;;;;;;5052242;28;20563;-78
2021/12/13 00:49:47;;;;;;;93.00;27.13;;;;;;;;;;5013592;28;20041;-78
2021/12/13 00:52:16;;;;;;;99.07;28.88;;;;;;;;;;5035967;28;20041;-78
2021/12/13 00:54:42;;;;;;;94.22;31.45;;;;;;;;;;5028335;28;20374;-78
2021/12/13 00:57:15;;;;;;;93.88;31.45;;;;;;;;;;5066469;28;20406;-78
2021/12/13 00:59:43;;;;;;;107.35;30.67;;;;;;;;;;5035391;28;20045;-79
2021/12/13 01:02:18;;;;;;;99.18;29.98;;;;;;;;;;5014608;28;20089;-79
2021/12/13 01:04:47;;;;;;;125.85;36.25;;;;;;;;;;5032876;28;20120;-78
2021/12/13 01:07:32;;;;;;;105.97;32.35;;;;;;;;;;5015087;28;20125;-78
2021/12/13 01:09:58;;;;;;;114.15;34.45;;;;;;;;;;5025253;28;20032;-78
2021/12/13 01:12:24;;;;;;;109.30;31.17;;;;;;;;;;5009690;28;20128;-78
2021/12/13 01:14:57;;;;;;;131.00;38.20;;;;;;;;;;5011109;28;20041;-78
2021/12/13 01:17:47;;;;;;;142.02;39.28;;;;;;;;;;5024033;28;20120;-78
2021/12/13 01:20:24;;;;;;;139.43;37.97;;;;;;;;;;5004511;28;20037;-79
2021/12/13 01:22:55;;;;;;;143.00;38.55;;;;;;;;;;5025260;28;20115;-79
2021/12/13 01:25:43;;;;;;;128.13;38.78;;;;;;;;;;5011668;28;20029;-79
2021/12/13 01:28:12;;;;;;;117.53;34.38;;;;;;;;;;5026987;28;20049;-79
2021/12/13 01:30:42;;;;;;;116.18;33.35;;;;;;;;;;5031662;28;20127;-79
2021/12/13 01:33:09;;;;;;;112.18;34.55;;;;;;;;;;5023555;28;20071;-79
2021/12/13 01:35:38;;;;;;;91.82;31.02;;;;;;;;;;5048634;28;20090;-79
2021/12/13 01:38:09;;;;;;;108.80;28.83;;;;;;;;;;5007473;28;21051;-79
2021/12/13 01:40:36;;;;;;;128.27;35.83;;;;;;;;;;5025397;28;20075;-79
2021/12/13 01:43:02;;;;;;;84.07;28.40;;;;;;;;;;5026622;28;20033;-78
2021/12/13 01:45:30;;;;;;;71.28;25.30;;;;;;;;;;5051052;28;20134;-78
2021/12/13 01:47:57;;;;;;;85.18;27.13;;;;;;;;;;5029894;28;20119;-78
2021/12/13 01:50:28;;;;;;;69.70;26.17;;;;;;;;;;5066585;28;20124;-78
2021/12/13 01:52:54;;;;;;;55.00;22.48;;;;;;;;;;5041324;28;20080;-78
2021/12/13 01:55:24;;;;;;;65.35;23.52;;;;;;;;;;4997251;28;20511;-79
2021/12/13 01:57:56;;;;;;;51.75;21.65;;;;;;;;;;5037024;28;20103;-79
2021/12/13 02:00:43;;;;;;;51.20;21.35;;;;;;;;;;5026102;28;20290;-78
2021/12/13 02:03:10;;;;;;;50.42;20.20;;;;;;;;;;5018686;28;20046;-78
2021/12/13 02:05:36;;;;;;;44.70;17.63;;;;;;;;;;5031521;28;20120;-78
2021/12/13 02:08:13;;;;;;;36.85;16.67;;;;;;;;;;5063236;28;20041;-78
2021/12/13 02:10:47;;;;;;;31.50;15.20;;;;;;;;;;5025994;28;20036;-78
2021/12/13 02:13:16;;;;;;;27.90;14.35;;;;;;;;;;5035320;28;20041;-79
2021/12/13 02:18:31;;;;;;;40.85;15.75;;;;;;;;;;5029224;28;20091;-78
2021/12/13 02:21:10;;;;;;;33.17;15.70;;;;;;;;;;5027383;28;20049;-78
2021/12/13 02:23:39;;;;;;;29.83;12.75;;;;;;;;;;5036691;28;20045;-78
2021/12/13 02:26:05;;;;;;;33.22;15.20;;;;;;;;;;5054067;28;20036;-78
2021/12/13 02:28:34;;;;;;;25.85;13.85;;;;;;;;;;5026799;28;20445;-78
2021/12/13 02:31:01;;;;;;;33.38;15.85;;;;;;;;;;5020794;28;20048;-78
2021/12/13 02:33:30;;;;;;;34.13;16.45;;;;;;;;;;5030792;28;20071;-79
2021/12/13 02:36:00;;;;;;;29.98;15.40;;;;;;;;;;5051175;28;20431;-78
2021/12/13 02:38:27;;;;;;;36.63;17.95;;;;;;;;;;5028043;28;20514;-76
2021/12/13 02:40:53;;;;;;;35.97;19.25;;;;;;;;;;5002000;28;20033;-76
2021/12/13 02:43:21;;;;;;;33.63;17.60;;;;;;;;;;5032804;28;20136;-77
2021/12/13 02:45:52;;;;;;;39.58;19.65;;;;;;;;;;5028185;28;20409;-77
2021/12/13 02:48:20;;;;;;;36.20;19.85;;;;;;;;;;5054332;28;20045;-77
2021/12/13 02:50:50;;;;;;;41.05;20.02;;;;;;;;;;5040365;28;20064;-77
2021/12/13 02:53:17;;;;;;;42.70;21.35;;;;;;;;;;5033628;28;20527;-78
2021/12/13 02:55:44;;;;;;;35.72;17.88;;;;;;;;;;5013597;28;20095;-78
2021/12/13 02:58:13;;;;;;;48.25;22.10;;;;;;;;;;5038398;28;20057;-77
2021/12/13 03:00:42;;;;;;;41.55;20.15;;;;;;;;;;5033996;28;20041;-77
2021/12/13 03:03:10;;;;;;;40.13;20.52;;;;;;;;;;5032161;28;20045;-77
2021/12/13 03:05:38;;;;;;;44.53;20.88;;;;;;;;;;5029535;28;20047;-78
2021/12/13 03:08:08;;;;;;;46.97;22.98;;;;;;;;;;5033189;28;20095;-77
2021/12/13 03:10:37;;;;;;;45.05;20.80;;;;;;;;;;5034796;28;20041;-77
2021/12/13 03:13:03;;;;;;;44.70;20.17;;;;;;;;;;5037791;28;20120;-78
2021/12/13 03:15:30;;;;;;;43.13;20.00;;;;;;;;;;5023246;28;20037;-78
2021/12/13 03:18:00;;;;;;;50.10;21.77;;;;;;;;;;5056261;28;20045;-77
2021/12/13 03:20:26;;;;;;;43.35;19.45;;;;;;;;;;5072234;28;20068;-77
2021/12/13 03:22:52;;;;;;;42.80;19.95;;;;;;;;;;5025953;28;20094;-78
2021/12/13 03:25:26;;;;;;;40.90;19.83;;;;;;;;;;5017302;28;20036;-77
2021/12/13 03:28:04;;;;;;;40.75;16.83;;;;;;;;;;5045395;28;20094;-77
2021/12/13 03:30:39;;;;;;;36.78;18.67;;;;;;;;;;5037802;28;20081;-77
2021/12/13 03:33:10;;;;;;;33.08;16.83;;;;;;;;;;5034176;28;20068;-77
2021/12/13 03:35:36;;;;;;;;;;;;;;;;;;5042143;28;20048;-77
2021/12/13 03:38:05;;;;;;;37.25;17.83;;;;;;;;;;5065213;28;19920;-77
2021/12/13 03:40:32;;;;;;;38.65;17.55;;;;;;;;;;5048424;28;20567;-78
2021/12/13 03:42:59;;;;;;;36.67;17.83;;;;;;;;;;5034357;28;20033;-77
2021/12/13 03:45:46;;;;;;;38.97;17.70;;;;;;;;;;5009286;28;20485;-77
2021/12/13 03:48:15;;;;;;;48.90;20.45;;;;;;;;;;5046485;28;20040;-77
2021/12/13 03:50:45;;;;;;;40.60;17.90;;;;;;;;;;5037925;28;20132;-77
2021/12/13 03:53:13;;;;;;;31.60;16.42;;;;;;;;;;5049464;28;20061;-77
2021/12/13 03:55:40;;;;;;;36.00;16.85;;;;;;;;;;5011690;28;20041;-77
2021/12/13 03:58:09;;;;;;;38.45;17.85;;;;;;;;;;5000041;28;20053;-77
2021/12/13 04:00:38;;;;;;;39.20;15.82;;;;;;;;;;5032664;28;20041;-77
2021/12/13 04:03:06;;;;;;;35.13;16.25;;;;;;;;;;5043634;28;20030;-77
2021/12/13 04:05:33;;;;;;;32.42;15.80;;;;;;;;;;5042050;28;20041;-77
2021/12/13 04:08:01;;;;;;;25.48;14.27;;;;;;;;;;5048100;28;20025;-77
2021/12/13 04:10:33;;;;;;;31.23;13.82;;;;;;;;;;5031780;28;20037;-77
2021/12/13 04:13:01;;;;;;;25.67;13.93;;;;;;;;;;5028683;28;20053;-77
2021/12/13 04:15:46;;;;;;;28.27;13.18;;;;;;;;;;5026427;28;20076;-77
2021/12/13 04:18:28;;;;;;;29.35;13.93;;;;;;;;;;5015015;28;20041;-77
2021/12/13 04:21:02;;;;;;;29.13;13.63;;;;;;;;;;5025656;28;20183;-77
2021/12/13 04:23:29;;;;;;;27.55;13.25;;;;;;;;;;5012717;28;20482;-77
2021/12/13 04:25:56;;;;;;;26.30;12.18;;;;;;;;;;5042865;28;20037;-77
2021/12/13 04:28:43;;;;;;;25.10;12.18;;;;;;;;;;5046209;28;20043;-77
2021/12/13 04:31:11;;;;;;;23.00;11.60;;;;;;;;;;5006135;28;20094;-77
2021/12/13 04:33:43;;;;;;;22.58;12.15;;;;;;;;;;5024661;28;20041;-77
2021/12/13 04:36:14;;;;;;;18.50;10.90;;;;;;;;;;5061365;28;20108;-77
2021/12/13 04:38:41;;;;;;;;;;;;;;;;;;5021183;28;20037;-77
2021/12/13 04:41:07;;;;;;;21.88;11.00;;;;;;;;;;5069964;28;19921;-77
2021/12/13 04:43:35;;;;;;;24.90;11.52;;;;;;;;;;5071361;28;20051;-77
2021/12/13 04:46:04;;;;;;;21.33;11.40;;;;;;;;;;5032559;28;20037;-77
2021/12/13 04:48:33;;;;;;;24.17;11.73;;;;;;;;;;5048363;28;20040;-77
2021/12/13 04:51:04;;;;;;;19.30;10.40;;;;;;;;;;5062256;28;20039;-77
2021/12/13 04:53:37;;;;;;;23.08;11.88;;;;;;;;;;5022164;28;20049;-77
2021/12/13 04:56:05;;;;;;;23.80;12.45;;;;;;;;;;5010049;28;20076;-77
2021/12/13 04:58:31;;;;;;;24.88;11.75;;;;;;;;;;5047558;28;20045;-77
2021/12/13 05:00:59;;;;;;;20.45;12.52;;;;;;;;;;5015616;28;20072;-77
2021/12/13 05:03:29;;;;;;;21.27;10.57;;;9.60;99.90;;;;;;5025951;28;20068;-77
2021/12/13 05:05:58;;;;;;;20.48;10.85;;;9.60;99.90;;;;;;5011410;28;20032;-77
2021/12/13 05:08:26;;;;;;;20.52;10.63;;;9.50;99.90;;;;;;5060354;28;20123;-77
2021/12/13 05:10:51;;;;;;;22.58;11.55;;;9.50;99.90;;;;;;5025901;28;20056;-77
2021/12/13 05:13:24;;;;;;;19.45;9.77;;;9.40;99.90;;;;;;5034936;28;20044;-77
2021/12/13 05:16:09;;;;;;;18.88;9.65;;;9.40;99.90;;;;;;5032157;28;20118;-77
2021/12/13 05:18:44;;;;;;;20.60;10.13;;;9.60;99.90;;;;;;5002944;28;20400;-77
2021/12/13 05:21:17;;;;;;;19.60;11.30;;;9.40;99.90;;;;;;5008707;28;20040;-77
2021/12/13 05:23:56;;;;;;;19.50;9.98;;;9.50;99.90;;;;;;5028678;28;20033;-77
2021/12/13 05:26:34;;;;;;;19.65;9.80;;;9.90;99.90;;;;;;5027817;28;20047;-77
2021/12/13 05:29:03;;;;;;;17.40;9.40;;;9.50;99.90;;;;;;5030575;28;20041;-77
2021/12/13 05:31:30;;;;;;;24.45;10.52;;;9.70;99.90;;;;;;5007352;28;20072;-77
2021/12/13 05:34:00;;;;;;;22.08;10.93;;;9.70;99.90;;;;;;5061816;28;20045;-77
2021/12/13 05:36:36;;;;;;;25.00;10.85;;;9.50;99.90;;;;;;5030061;28;20037;-77
2021/12/13 05:39:09;;;;;;;15.68;9.85;;;9.50;99.90;;;;;;5031837;28;20029;-77
2021/12/13 05:41:35;;;;;;;20.92;10.13;;;9.60;99.90;;;;;;5008417;28;20124;-77
2021/12/13 05:44:05;;;;;;;20.20;10.82;;;9.60;99.90;;;;;;5027737;28;20099;-76
2021/12/13 05:46:39;;;;;;;16.80;10.82;;;9.50;99.90;;;;;;5028265;28;20132;-77
2021/12/13 05:49:42;;;;;;;21.10;11.25;;;9.60;99.90;;;;;;5043520;28;20040;-77
2021/12/13 05:52:31;;;;;;;22.10;11.35;;;9.40;99.90;;;;;;4988789;28;20041;-77
2021/12/13 05:55:03;;;;;;;22.60;11.70;;;9.40;99.90;;;;;;5003702;28;20037;-77
2021/12/13 05:57:44;;;;;;;20.85;11.45;;;9.40;99.90;;;;;;5027006;28;20057;-77
2021/12/13 06:00:16;;;;;;;23.55;12.88;;;9.60;99.90;;;;;;5021662;28;20095;-77
2021/12/13 06:03:09;;;;;;;19.95;11.45;;;9.40;99.90;;;;;;5067774;28;20075;-77
2021/12/13 06:05:38;;;;;;;21.95;10.85;;;9.50;99.90;;;;;;5028500;28;20110;-77
2021/12/13 06:08:19;;;;;;;20.83;11.52;;;9.70;99.90;;;;;;5022742;28;20033;-77
2021/12/13 06:10:52;;;;;;;21.10;11.02;;;9.30;99.90;;;;;;5011686;28;20064;-77
2021/12/13 06:13:36;;;;;;;22.15;10.35;;;9.50;99.90;;;;;;5063361;28;20052;-77
2021/12/13 06:16:03;;;;;;;16.95;9.95;;;9.40;99.90;;;;;;5026287;28;20137;-77
2021/12/13 06:18:58;;;;;;;21.10;10.77;;;9.50;99.90;;;;;;5048756;28;20409;-77
2021/12/13 06:21:34;;;;;;;16.48;9.38;;;9.50;99.90;;;;;;5030211;28;20056;-77
2021/12/13 06:24:00;;;;;;;17.45;10.32;;;9.70;99.90;;;;;;5043637;28;20151;-77
2021/12/13 06:26:30;;;;;;;16.40;10.20;;;9.50;99.90;;;;;;5029267;28;20029;-77
2021/12/13 06:29:00;;;;;;;18.95;10.30;;;9.40;99.90;;;;;;5031210;28;20043;-77
2021/12/13 06:31:36;;;;;;;18.70;9.38;;;9.50;99.90;;;;;;5044917;28;20091;-77
2021/12/13 06:34:09;;;;;;;15.55;9.93;;;10.10;99.90;;;;;;5057060;28;20678;-77
2021/12/13 06:36:39;;;;;;;16.95;10.68;;;9.40;99.90;;;;;;5039867;28;20053;-78
2021/12/13 06:39:09;;;;;;;15.13;9.00;;;9.40;99.90;;;;;;5050832;28;20182;-76
2021/12/13 06:41:42;;;;;;;16.90;10.43;;;9.60;99.90;;;;;;5045468;28;20033;-77
2021/12/13 06:44:26;;;;;;;18.17;11.02;;;9.70;99.90;;;;;;5025650;28;20037;-77
2021/12/13 06:47:01;;;;;;;19.98;10.55;;;9.40;99.90;;;;;;5054952;28;20507;-77
2021/12/13 06:49:37;;;;;;;19.70;12.05;;;9.30;99.90;;;;;;5027026;28;20468;-77
2021/12/13 06:52:12;;;;;;;23.58;13.18;;;9.50;99.90;;;;;;5038208;28;20037;-77
2021/12/13 06:54:49;;;;;;;21.25;12.15;;;9.40;99.90;;;;;;5028035;28;20033;-77
2021/12/13 06:57:17;;;;;;;20.70;11.55;;;9.40;99.90;;;;;;5044370;28;20044;-78
2021/12/13 06:59:55;;;;;;;23.63;12.07;;;9.40;99.90;;;;;;5030168;28;20088;-78
2021/12/13 07:02:27;;;;;;;20.73;12.20;;;9.60;99.90;;;;;;5046362;28;20043;-78
2021/12/13 07:05:07;;;;;;;20.80;12.25;;;9.40;99.90;;;;;;5012227;28;20044;-77
2021/12/13 07:07:47;;;;;;;20.98;13.18;;;9.40;99.90;;;;;;5048357;28;20136;-78
2021/12/13 07:10:19;;;;;;;22.10;13.98;;;9.40;99.90;;;;;;5009898;28;20043;-78
2021/12/13 07:12:58;;;;;;;24.13;14.23;;;9.70;99.90;;;;;;5043185;28;20060;-79
2021/12/13 07:15:29;;;;;;;21.33;13.82;;;9.70;99.90;;;;;;5033381;28;20094;-77
2021/12/13 07:18:10;;;;;;;23.88;13.25;;;9.60;99.90;;;;;;5041784;28;20053;-76
2021/12/13 07:20:42;;;;;;;25.40;14.25;;;9.70;99.90;;;;;;5034620;28;20097;-73
2021/12/13 07:23:09;;;;;;;23.50;13.50;;;9.30;99.90;;;;;;5060712;28;20107;-77
2021/12/13 07:25:39;;;;;;;22.73;14.20;;;9.40;99.90;;;;;;5030419;28;20037;-77
2021/12/13 07:28:08;;;;;;;25.80;15.77;;;9.70;99.90;;;;;;5034031;28;20036;-77
2021/12/13 07:30:36;;;;;;;26.45;16.00;;;9.40;99.90;;;;;;5025241;28;20044;-77
2021/12/13 07:33:09;;;;;;;28.67;17.10;;;9.60;99.90;;;;;;5028922;28;20091;-78
2021/12/13 07:35:42;;;;;;;28.95;17.95;;;9.30;99.90;;;;;;5029363;28;20041;-78
2021/12/13 07:38:26;;;;;;;28.48;17.30;;;9.40;99.90;;;;;;5068963;28;20040;-77
2021/12/13 07:40:54;;;;;;;26.42;17.27;;;9.30;99.90;;;;;;5011734;28;20044;-78
2021/12/13 07:43:26;;;;;;;27.65;17.73;;;;;;;;;;5013170;28;20079;-78
2021/12/13 07:46:01;;;;;;;33.30;18.35;;;9.30;99.90;;;;;;5025764;28;20076;-78
2021/12/13 07:48:40;;;;;;;31.45;19.52;;;9.30;99.90;;;;;;5039528;28;20031;-78
2021/12/13 07:51:25;;;;;;;31.88;19.25;;;9.40;99.90;;;;;;5029976;28;20126;-78
2021/12/13 07:53:54;;;;;;;30.15;17.73;;;9.30;99.90;;;;;;5043111;28;20080;-78
2021/12/13 07:56:28;;;;;;;34.42;20.80;;;9.30;99.90;;;;;;5027288;28;20084;-78
2021/12/13 07:59:14;;;;;;;33.40;20.70;;;9.30;99.90;;;;;;5056729;28;20057;-78
2021/12/13 08:01:52;;;;;;;37.45;21.25;;;9.30;99.90;;;;;;5036606;28;20040;-78
2021/12/13 08:04:26;;;;;;;36.00;21.83;;;9.30;99.90;;;;;;5044355;28;20041;-78
2021/12/13 08:07:14;;;;;;;32.47;19.80;;;9.40;99.90;;;;;;5029223;28;20048;-78
2021/12/13 08:09:44;;;;;;;35.47;22.67;;;9.70;99.90;;;;;;5034170;28;20180;-77
2021/12/13 08:12:17;;;;;;;39.85;23.45;;;9.40;99.90;;;;;;5080469;28;20040;-78
2021/12/13 08:14:44;;;;;;;39.72;23.00;;;9.40;99.90;;;;;;5026410;28;20045;-78
2021/12/13 08:17:15;;;;;;;33.78;22.45;;;9.30;99.90;;;;;;5033552;28;20028;-77
2021/12/13 08:19:43;;;;;;;41.22;23.63;;;9.30;99.90;;;;;;5064440;28;20413;-77
2021/12/13 08:22:15;;;;;;;38.63;23.77;;;9.50;99.90;;;;;;5068416;28;20505;-78
2021/12/13 08:24:50;;;;;;;37.67;23.38;;;9.50;99.90;;;;;;5022345;28;20040;-77
2021/12/13 08:27:34;;;;;;;39.05;22.98;;;9.40;99.90;;;;;;5053061;28;20042;-77
2021/12/13 08:30:23;;;;;;;35.47;23.35;;;9.70;99.90;;;;;;5028073;28;20052;-77
2021/12/13 08:33:04;;;;;;;37.50;23.60;;;9.50;99.90;;;;;;5059695;28;20090;-77
2021/12/13 08:35:51;;;;;;;43.42;25.50;;;9.50;99.90;;;;;;5064468;28;20037;-78
2021/12/13 08:39:00;;;;;;;40.28;24.60;;;9.40;99.90;;;;;;5016935;28;20070;-78
2021/12/13 08:41:40;;;;;;;43.63;24.33;;;9.50;99.90;;;;;;5047039;28;20037;-78
2021/12/13 08:44:12;;;;;;;35.67;24.00;;;9.50;99.90;;;;;;5044802;28;20033;-78
2021/12/13 08:46:46;;;;;;;40.00;25.83;;;9.50;99.90;;;;;;5046306;28;20132;-78
2021/12/13 08:49:34;;;;;;;42.78;24.77;;;9.90;99.90;;;;;;5043454;28;20045;-78
2021/12/13 08:52:30;;;;;;;32.28;22.05;;;9.50;99.90;;;;;;5029551;28;20060;-77
2021/12/13 08:55:11;;;;;;;37.28;23.95;;;9.60;99.90;;;;;;5042019;28;20140;-77
2021/12/13 08:57:54;;;;;;;36.80;24.65;;;9.50;99.90;;;;;;5056682;28;20060;-78
2021/12/13 09:00:44;;;;;;;33.75;22.55;;;9.40;99.90;;;;;;5023063;28;20079;-78
2021/12/13 09:03:10;;;;;;;37.53;22.73;;;9.50;99.90;;;;;;5024876;28;20033;-78
2021/12/13 09:05:40;;;;;;;36.35;23.35;;;9.80;99.90;;;;;;5061747;28;22379;-78
2021/12/13 09:08:10;;;;;;;35.15;22.75;;;9.80;99.90;;;;;;5008649;28;20037;-78
2021/12/13 09:10:46;;;;;;;35.85;21.10;;;10.40;99.90;;;;;;5027876;28;20041;-78
2021/12/13 09:13:13;;;;;;;33.50;21.83;;;9.40;99.90;;;;;;5012480;28;20045;-78
2021/12/13 09:15:42;;;;;;;31.77;20.48;;;9.50;99.90;;;;;;5012748;28;20029;-78
2021/12/13 09:18:09;;;;;;;35.03;22.08;;;9.50;99.90;;;;;;5011571;28;20041;-78
2021/12/13 09:20:44;;;;;;;35.17;22.35;;;9.60;99.90;;;;;;5026838;28;20044;-78
2021/12/13 09:23:21;;;;;;;32.72;21.67;;;9.50;99.90;;;;;;5028763;28;20077;-78
2021/12/13 09:25:52;;;;;;;32.00;21.75;;;9.50;99.90;;;;;;5024712;28;20040;-78
2021/12/13 09:28:20;;;;;;;;;;;10.20;99.90;;;;;;5045211;28;20091;-78
2021/12/13 09:30:49;;;;;;;28.15;20.42;;;9.60;99.90;;;;;;5028634;28;19917;-78
2021/12/13 09:33:22;;;;;;;35.83;21.10;;;9.40;99.90;;;;;;5027542;28;20174;-78
2021/12/13 09:36:10;;;;;;;30.67;20.73;;;9.90;99.90;;;;;;5063756;28;20040;-78
2021/12/13 09:38:41;;;;;;;27.83;19.63;;;9.60;99.90;;;;;;5024755;28;20079;-78
2021/12/13 09:41:30;;;;;;;;;;;9.50;99.90;;;;;;5013182;28;20457;-78
2021/12/13 09:44:08;;;;;;;30.35;19.13;;;9.60;99.90;;;;;;5038724;28;19917;-78
2021/12/13 09:46:39;;;;;;;29.38;20.35;;;9.70;99.90;;;;;;5041744;28;20043;-78
2021/12/13 09:49:20;;;;;;;29.98;20.25;;;9.70;99.90;;;;;;5021718;28;20036;-78
2021/12/13 09:51:51;;;;;;;31.65;18.75;;;9.80;99.90;;;;;;5039489;28;20036;-78
2021/12/13 09:54:21;;;;;;;34.30;20.40;;;10.00;99.90;;;;;;5029743;28;20041;-78
2021/12/13 09:56:51;;;;;;;29.88;19.80;;;9.90;99.90;;;;;;5029657;28;20044;-78
2021/12/13 09:59:24;;;;;;;32.70;21.10;;;10.00;99.90;;;;;;5008614;28;20037;-78
2021/12/13 10:01:52;;;;;;;29.73;19.50;;;9.80;99.90;;;;;;4989853;28;20084;-78
2021/12/13 10:04:26;;;;;;;26.30;17.63;;;9.90;99.90;;;;;;5025210;28;20088;-78
2021/12/13 10:07:04;;;;;;;27.70;19.48;;;9.80;99.90;;;;;;4988004;28;20069;-78
2021/12/13 10:09:40;;;;;;;27.45;18.55;;;9.80;99.90;;;;;;5005699;28;20034;-78
2021/12/13 10:12:30;;;;;;;32.80;20.77;;;10.00;99.90;;;;;;5040651;28;20482;-78
2021/12/13 10:15:03;;;;;;;29.20;19.52;;;9.80;99.90;;;;;;5008826;28;20033;-78
2021/12/13 10:17:33;;;;;;;31.08;18.02;;;9.80;99.90;;;;;;5022453;28;20087;-78
2021/12/13 10:20:04;;;;;;;29.95;18.80;;;9.70;99.90;;;;;;5006606;28;20049;-78
2021/12/13 10:22:33;;;;;;;26.35;19.13;;;10.10;99.90;;;;;;4993136;28;20454;-78
2021/12/13 10:25:10;;;;;;;30.63;18.00;;;10.10;99.90;;;;;;5028240;28;20038;-78
2021/12/13 10:27:36;;;;;;;26.98;18.30;;;9.70;99.90;;;;;;5043868;28;20033;-78
2021/12/13 10:30:07;;;;;;;27.38;18.45;;;9.80;99.90;;;;;;4990052;28;22391;-78
2021/12/13 10:32:35;;;;;;;;;;;9.80;99.90;;;;;;5007776;28;20079;-78
2021/12/13 10:35:15;;;;;;;28.70;17.63;;;10.10;99.90;;;;;;5030022;28;19943;-78
2021/12/13 10:37:46;;;;;;;24.55;17.60;;;9.90;99.90;;;;;;4992556;28;20037;-78
2021/12/13 10:40:17;;;;;;;25.42;16.90;;;9.90;99.90;;;;;;5044934;28;20045;-78
2021/12/13 10:42:56;;;;;;;25.02;15.18;;;9.80;99.90;;;;;;5044175;28;20061;-78
2021/12/13 10:45:29;;;;;;;26.98;16.85;;;9.90;99.90;;;;;;5008853;28;20061;-78
2021/12/13 10:47:59;;;;;;;25.02;15.90;;;9.80;99.90;;;;;;5021679;28;20464;-78
2021/12/13 10:50:35;;;;;;;26.10;15.45;;;9.90;99.90;;;;;;4993343;28;20140;-78
2021/12/13 10:53:03;;;;;;;23.15;15.68;;;9.80;99.90;;;;;;5039901;28;20046;-78
2021/12/13 10:55:36;;;;;;;25.73;15.13;;;9.90;99.90;;;;;;5012063;28;20059;-78
2021/12/13 10:58:03;;;;;;;25.33;16.27;;;9.90;99.90;;;;;;5029482;28;20135;-78
2021/12/13 11:00:38;;;;;;;22.15;15.57;;;9.90;99.90;;;;;;5048660;28;20041;-78
2021/12/13 11:03:12;;;;;;;27.02;16.83;;;10.20;99.90;;;;;;5046022;28;20037;-77
2021/12/13 11:05:41;;;;;;;23.75;15.73;;;10.00;99.90;;;;;;5078019;28;20033;-78
2021/12/13 11:08:09;;;;;;;20.23;14.63;;;10.00;99.90;;;;;;5081302;28;20039;-78
2021/12/13 11:10:44;;;;;;;24.77;14.55;;;10.10;99.90;;;;;;5079374;28;20044;-77
2021/12/13 11:13:10;;;;;;;25.88;16.33;;;10.10;99.90;;;;;;5050275;28;20036;-77
2021/12/13 11:15:40;;;;;;;25.92;15.27;;;10.60;99.90;;;;;;5064407;28;20071;-76
2021/12/13 11:18:11;;;;;;;25.58;15.68;;;10.40;99.90;;;;;;5050013;28;20048;-77
2021/12/13 11:20:39;;;;;;;;;;;10.20;99.90;;;;;;5034373;28;20041;-77
2021/12/13 11:23:07;;;;;;;23.13;14.73;;;10.60;99.90;;;;;;5051029;28;19916;-77
2021/12/13 11:25:39;;;;;;;20.85;13.25;;;10.20;99.90;;;;;;5033491;28;20569;-77
2021/12/13 11:28:06;;;;;;;23.35;14.85;;;10.20;99.90;;;;;;5049850;28;20106;-78
2021/12/13 11:30:35;;;;;;;21.58;14.52;;;10.20;99.90;;;;;;5085656;28;20036;-77
2021/12/13 11:33:22;;;;;;;21.63;14.43;;;10.20;99.90;;;;;;5083797;28;20036;-77
2021/12/13 11:36:09;;;;;;;22.67;14.57;;;10.50;99.90;;;;;;5053391;28;20055;-77
2021/12/13 11:38:59;;;;;;;23.38;15.00;;;10.20;99.90;;;;;;5078400;28;20171;-77
2021/12/13 11:42:09;;;;;;;27.07;15.73;;;10.20;99.90;;;;;;5065392;28;20540;-78
2021/12/13 11:44:42;;;;;;;21.50;14.25;;;10.20;99.90;;;;;;5081529;28;20037;-77
2021/12/13 11:47:29;;;;;;;26.15;13.93;;;10.20;99.90;;;;;;5048453;28;20041;-77
2021/12/13 11:50:37;;;;;;;18.83;12.48;;;10.20;99.90;;;;;;5062537;28;20037;-78
2021/12/13 11:53:38;;;;;;;18.95;12.50;;;10.30;99.90;;;;;;5030560;28;20147;-78
2021/12/13 11:56:40;;;;;;;22.65;13.52;;;10.30;99.90;;;;;;5045665;28;20036;-78
2021/12/13 11:59:44;;;;;;;22.02;12.70;;;10.30;99.90;;;;;;5051260;28;20053;-78
2021/12/13 12:02:21;;;;;;;21.35;13.13;;;10.20;99.90;;;;;;4971283;28;20068;-78
2021/12/13 12:05:11;;;;;;;21.25;13.32;;;10.30;99.90;;;;;;5040032;28;20048;-78
2021/12/13 12:08:19;;;;;;;21.88;13.30;;;10.30;99.90;;;;;;5065847;28;20068;-78
2021/12/13 12:11:23;;;;;;;19.98;13.95;;;10.30;99.90;;;;;;5021036;28;20098;-78
2021/12/13 12:14:04;;;;;;;21.27;13.27;;;10.30;99.90;;;;;;5082529;28;20151;-79
2021/12/13 12:16:39;;;;;;;22.13;13.32;;;10.30;99.90;;;;;;5083488;28;20412;-78
2021/12/13 12:19:12;;;;;;;22.13;14.05;;;10.50;99.90;;;;;;5049721;28;20037;-78
2021/12/13 12:22:04;;;;;;;20.33;13.32;;;10.30;99.90;;;;;;5046654;28;20069;-77
2021/12/13 12:24:35;;;;;;;21.65;13.32;;;10.30;99.90;;;;;;5049906;28;20052;-77
2021/12/13 12:27:03;;;;;;;;;;;10.60;99.90;;;;;;5031915;28;20044;-78
2021/12/13 12:29:38;;;;;;;22.50;14.05;;;10.30;99.90;;;;;;5086541;28;19916;-78
2021/12/13 12:32:13;;;;;;;20.05;13.38;;;10.30;99.90;;;;;;5052632;28;20068;-78
2021/12/13 12:34:58;;;;;;;22.90;13.38;;;10.30;99.90;;;;;;5056368;28;20048;-78
2021/12/13 12:37:27;;;;;;;19.73;13.15;;;10.20;99.90;;;;;;5052931;28;20528;-78
2021/12/13 12:40:08;;;;;;;23.70;13.77;;;10.50;99.90;;;;;;5094334;28;20111;-78
2021/12/13 12:42:37;;;;;;;;;;;10.30;99.90;;;;;;5053612;28;20037;-77
2021/12/13 12:45:11;;;;;;;19.52;12.23;;;10.30;99.90;;;;;;5086657;28;20314;-78
2021/12/13 12:47:37;;;;;;;23.20;14.23;;;10.40;99.90;;;;;;5043668;28;20556;-78
2021/12/13 12:50:50;;;;;;;27.95;14.50;;;10.30;99.90;;;;;;5035267;28;20131;-79
2021/12/13 12:53:55;;;;;;;21.38;12.98;;;10.30;99.90;;;;;;5047187;28;20049;-77
2021/12/13 12:56:28;;;;;;;24.25;13.60;;;10.40;99.90;;;;;;5047047;28;20127;-75
2021/12/13 12:59:03;;;;;;;25.83;15.05;;;10.30;99.90;;;;;;5051285;28;20109;-77
2021/12/13 13:01:37;;;;;;;22.13;14.77;;;10.50;99.90;;;;;;5069184;28;20048;-77
2021/12/13 13:04:13;;;;;;;24.85;14.32;;;10.50;99.90;;;;;;5040169;28;20090;-77
2021/12/13 13:07:01;;;;;;;24.52;14.85;;;10.50;99.90;;;;;;5070099;28;20115;-78
2021/12/13 13:09:44;;;;;;;21.98;13.90;;;10.60;99.90;;;;;;5067619;28;20039;-78
2021/12/13 13:12:14;;;;;;;20.95;13.07;;;10.60;99.90;;;;;;5047658;28;20037;-75
2021/12/13 13:14:49;;;;;;;20.20;12.70;;;10.60;99.90;;;;;;5048880;28;20033;-76
2021/12/13 13:17:16;;;;;;;22.33;14.90;;;10.60;99.90;;;;;;5090120;28;20047;-75
2021/12/13 13:19:45;;;;;;;21.77;12.90;;;10.50;99.90;;;;;;5052143;28;20121;-75
2021/12/13 13:22:32;;;;;;;18.95;13.10;;;10.90;99.90;;;;;;5045188;28;20036;-75
2021/12/13 13:25:08;;;;;;;19.50;13.20;;;10.80;99.90;;;;;;5046689;28;20124;-76
2021/12/13 13:27:34;;;;;;;18.90;13.50;;;10.50;99.90;;;;;;5083204;28;20036;-77
2021/12/13 13:30:00;;;;;;;22.25;14.70;;;10.50;99.90;;;;;;5053193;28;20040;-77
2021/12/13 13:32:27;;;;;;;24.27;12.82;;;10.40;99.90;;;;;;5045453;28;20115;-78
2021/12/13 13:34:56;;;;;;;21.15;12.85;;;10.50;99.90;;;;;;5056517;28;20058;-78
2021/12/13 13:37:23;;;;;;;24.25;13.90;;;10.40;99.90;;;;;;5050741;28;20527;-78
2021/12/13 13:39:57;;;;;;;23.00;14.63;;;10.70;99.90;;;;;;5083355;28;20047;-78
2021/12/13 13:42:34;;;;;;;26.60;14.18;;;10.40;99.90;;;;;;5056001;28;20036;-78
2021/12/13 13:45:05;;;;;;;27.30;15.80;;;10.40;99.90;;;;;;5026136;28;20163;-78
2021/12/13 13:47:43;;;;;;;30.45;16.60;;;10.40;99.90;;;;;;5088299;28;20063;-78
2021/12/13 13:50:21;;;;;;;18.83;12.57;;;10.40;99.90;;;;;;5029995;28;20039;-78
2021/12/13 13:52:48;;;;;;;26.48;14.43;;;10.40;99.90;;;;;;5050006;28;20496;-78